Time;durP1;ratioP1;P1;durP2;ratioP2;P2;SDS_P1;SDS_P2;PMS_P1;PMS_P2;Temp;Humidity;BMP_temperature;BMP_pressure;BME280_temperature;BME280_humidity;BME280_pressure;Samples;Min_cycle;Max_cycle;Signal;HPM_P1;HPM_P2
2022/12/05 00:00:17;;;;;;;28.90;21.67;;;7.50;99.90;;;;;;5053118;28;20198;-55
2022/12/05 00:02:43;;;;;;;25.13;19.33;;;7.70;99.90;;;;;;5035835;28;20615;-53
2022/12/05 00:05:10;;;;;;;23.63;18.93;;;8.00;99.90;;;;;;5052647;28;20198;-57
2022/12/05 00:07:35;;;;;;;26.77;19.73;;;7.80;99.90;;;;;;5053344;28;20199;-56
2022/12/05 00:10:01;;;;;;;27.90;19.60;;;8.00;99.90;;;;;;5052970;28;20203;-55
2022/12/05 00:12:26;;;;;;;31.23;22.10;;;7.70;99.90;;;;;;5053418;28;20258;-56
2022/12/05 00:14:52;;;;;;;35.07;21.53;;;7.80;99.90;;;;;;5052679;28;20224;-55
2022/12/05 00:17:18;;;;;;;31.60;21.27;;;7.90;99.90;;;;;;5053138;28;20275;-56
2022/12/05 00:19:43;;;;;;;25.80;19.23;;;7.80;99.90;;;;;;5053291;28;20191;-58
2022/12/05 00:22:09;;;;;;;27.00;19.63;;;7.90;99.90;;;;;;5052287;28;20552;-55
2022/12/05 00:24:35;;;;;;;25.10;19.07;;;8.00;99.90;;;;;;5056512;28;20225;-53
2022/12/05 00:27:00;;;;;;;27.90;19.00;;;8.00;99.90;;;;;;5052185;28;20534;-56
2022/12/05 00:29:26;;;;;;;24.50;18.10;;;8.00;99.90;;;;;;5073077;28;20214;-56
2022/12/05 00:31:51;;;;;;;26.30;18.80;;;7.80;99.90;;;;;;5072580;28;20166;-55
2022/12/05 00:34:17;;;;;;;22.23;16.23;;;7.70;99.90;;;;;;5072948;28;20260;-57
2022/12/05 00:36:43;;;;;;;25.10;17.93;;;7.90;99.90;;;;;;5055883;28;20256;-54
2022/12/05 00:39:13;;;;;;;23.03;17.77;;;7.90;99.90;;;;;;5034244;28;20222;-56
2022/12/05 00:41:38;;;;;;;22.53;16.70;;;8.00;99.90;;;;;;5052926;28;20206;-56
2022/12/05 00:44:04;;;;;;;24.83;17.57;;;7.80;99.90;;;;;;5050879;28;20685;-54
2022/12/05 00:46:31;;;;;;;28.57;18.83;;;7.80;99.90;;;;;;5052718;28;20182;-54
2022/12/05 00:48:59;;;;;;;25.03;18.07;;;7.60;99.90;;;;;;5052258;28;20177;-56
2022/12/05 00:51:30;;;;;;;22.53;17.73;;;7.80;99.90;;;;;;5052362;28;20233;-53
2022/12/05 00:54:04;;;;;;;24.00;17.83;;;7.80;99.90;;;;;;5051843;28;20167;-54
2022/12/05 00:56:31;;;;;;;27.90;18.03;;;7.90;99.90;;;;;;5051345;28;20220;-53
2022/12/05 00:58:59;;;;;;;24.77;18.70;;;7.90;99.90;;;;;;5052519;28;20167;-53
2022/12/05 01:01:27;;;;;;;26.03;18.93;;;7.90;99.90;;;;;;5051874;28;20381;-53
2022/12/05 01:03:56;;;;;;;26.87;18.83;;;7.90;99.90;;;;;;5052052;28;20656;-54
2022/12/05 01:06:22;;;;;;;27.37;19.33;;;7.80;99.90;;;;;;5051551;28;20170;-53
2022/12/05 01:08:48;;;;;;;27.43;18.83;;;7.70;99.90;;;;;;5052235;28;20167;-54
2022/12/05 01:11:16;;;;;;;26.93;18.60;;;7.70;99.90;;;;;;5051200;28;20274;-54
2022/12/05 01:13:42;;;;;;;28.70;20.00;;;7.90;99.90;;;;;;5051734;28;20175;-53
2022/12/05 01:16:20;;;;;;;26.53;18.53;;;8.00;99.90;;;;;;5051614;28;20590;-54
2022/12/05 01:18:46;;;;;;;25.80;19.20;;;8.10;99.90;;;;;;5051108;28;20280;-54
2022/12/05 01:21:12;;;;;;;29.43;19.97;;;8.40;99.90;;;;;;5050444;28;20202;-53
2022/12/05 01:23:38;;;;;;;27.93;19.87;;;8.30;99.90;;;;;;5051081;28;20198;-56
2022/12/05 01:26:12;;;;;;;28.27;19.90;;;8.40;99.90;;;;;;5051963;28;20254;-57
2022/12/05 01:28:39;;;;;;;28.00;19.30;;;8.40;99.90;;;;;;5051401;28;20163;-54
2022/12/05 01:31:07;;;;;;;29.57;20.67;;;8.30;99.90;;;;;;5051860;28;20191;-54
2022/12/05 01:33:34;;;;;;;30.37;20.80;;;8.40;99.90;;;;;;5051348;28;20540;-54
2022/12/05 01:36:01;;;;;;;28.90;19.00;;;8.50;99.90;;;;;;5051497;28;20171;-52
2022/12/05 01:38:26;;;;;;;26.47;19.67;;;8.50;99.90;;;;;;5051380;28;20227;-59
2022/12/05 01:41:00;;;;;;;28.00;19.43;;;8.50;99.90;;;;;;5051626;28;20289;-53
2022/12/05 01:43:26;;;;;;;29.77;20.63;;;8.50;99.90;;;;;;5051277;28;20788;-53
2022/12/05 01:45:52;;;;;;;30.90;20.17;;;8.60;99.90;;;;;;5051051;28;20174;-56
2022/12/05 01:48:22;;;;;;;29.50;20.77;;;8.60;99.90;;;;;;5051224;28;20221;-58
2022/12/05 01:50:49;;;;;;;27.73;19.40;;;8.70;99.90;;;;;;5099874;22;20737;-59
2022/12/05 01:53:16;;;;;;;29.27;20.33;;;7.60;99.90;;;;;;5049748;28;20650;-60
2022/12/05 01:55:44;;;;;;;29.37;19.67;;;9.00;99.90;;;;;;5067250;28;20171;-60
2022/12/05 01:58:10;;;;;;;29.83;20.40;;;9.40;99.90;;;;;;5068802;28;20251;-60
2022/12/05 02:00:37;;;;;;;31.97;21.77;;;8.80;99.90;;;;;;5077623;28;20198;-59
2022/12/05 02:03:06;;;;;;;28.07;20.70;;;9.00;99.90;;;;;;5071018;28;20198;-60
2022/12/05 02:05:34;;;;;;;29.50;21.27;;;10.50;99.90;;;;;;5071521;28;20520;-59
2022/12/05 02:08:03;;;;;;;28.70;20.53;;;8.90;99.90;;;;;;5085258;28;20170;-61
2022/12/05 02:10:44;;;;;;;30.17;20.80;;;8.70;99.90;;;;;;5084072;28;20205;-62
2022/12/05 02:13:31;;;;;;;28.93;19.83;;;8.70;99.90;;;;;;5085580;28;20167;-59
2022/12/05 02:16:18;;;;;;;31.87;21.70;;;8.70;99.90;;;;;;5085240;28;20163;-61
2022/12/05 02:19:35;;;;;;;28.30;20.20;;;8.70;99.90;;;;;;5083633;28;20170;-62
2022/12/05 02:22:10;;;;;;;26.37;18.63;;;8.70;99.90;;;;;;5069692;28;20201;-62
2022/12/05 02:24:57;;;;;;;28.43;19.27;;;8.60;99.90;;;;;;5084703;28;20174;-60
2022/12/05 02:27:52;;;;;;;28.10;19.53;;;8.60;99.90;;;;;;5067217;28;20262;-60
2022/12/05 02:30:25;;;;;;;23.90;17.67;;;8.60;99.90;;;;;;5066323;28;20194;-62
2022/12/05 02:33:22;;;;;;;25.67;18.23;;;9.00;99.90;;;;;;5066512;28;20291;-59
2022/12/05 02:36:03;;;;;;;25.10;18.43;;;8.40;99.90;;;;;;5084851;28;20178;-62
2022/12/05 02:39:10;;;;;;;24.23;17.60;;;8.40;99.90;;;;;;5066998;28;20178;-61
2022/12/05 02:41:43;;;;;;;27.73;19.47;;;8.40;99.90;;;;;;5085693;28;20281;-62
2022/12/05 02:44:23;;;;;;;24.13;17.97;;;8.60;99.90;;;;;;5086454;28;20170;-62
2022/12/05 02:46:51;;;;;;;26.80;19.07;;;8.50;99.90;;;;;;5068316;28;20239;-62
2022/12/05 02:49:22;;;;;;;23.70;17.57;;;8.40;99.90;;;;;;5085864;28;20654;-61
2022/12/05 02:51:53;;;;;;;24.80;18.43;;;8.40;99.90;;;;;;5084578;28;20205;-62
2022/12/05 02:54:32;;;;;;;23.93;17.10;;;9.70;99.90;;;;;;5066927;28;20554;-61
2022/12/05 02:56:59;;;;;;;24.63;18.23;;;8.50;99.90;;;;;;5067727;28;20527;-61
2022/12/05 02:59:25;;;;;;;28.13;19.63;;;8.40;99.90;;;;;;5084876;28;20178;-61
2022/12/05 03:01:50;;;;;;;26.37;18.80;;;8.50;99.90;;;;;;5084943;28;20285;-62
2022/12/05 03:04:18;;;;;;;23.70;17.50;;;8.50;99.90;;;;;;5085696;28;20166;-61
2022/12/05 03:06:47;;;;;;;25.77;18.40;;;8.50;99.90;;;;;;5085019;28;20171;-61
2022/12/05 03:09:22;;;;;;;26.23;18.33;;;8.50;99.90;;;;;;5083999;28;20231;-61
2022/12/05 03:12:02;;;;;;;25.90;18.63;;;9.90;99.90;;;;;;5083514;28;20338;-62
2022/12/05 03:14:40;;;;;;;27.97;20.00;;;8.40;99.90;;;;;;5064205;28;20206;-62
2022/12/05 03:17:17;;;;;;;25.20;18.80;;;8.40;99.90;;;;;;5084220;28;20182;-62
2022/12/05 03:20:01;;;;;;;25.63;18.17;;;8.50;99.90;;;;;;5085360;28;20206;-62
2022/12/05 03:22:34;;;;;;;24.17;17.13;;;8.50;99.90;;;;;;5067180;28;20217;-62
2022/12/05 03:25:01;;;;;;;22.80;17.30;;;8.60;99.90;;;;;;5084393;28;20174;-61
2022/12/05 03:27:48;;;;;;;25.13;17.97;;;8.50;99.90;;;;;;5084761;28;20175;-62
2022/12/05 03:30:18;;;;;;;25.03;17.63;;;9.30;99.90;;;;;;5086725;28;20190;-62
2022/12/05 03:33:09;;;;;;;25.57;18.27;;;8.70;99.90;;;;;;5070618;28;20186;-61
2022/12/05 03:35:52;;;;;;;23.37;17.27;;;8.70;99.90;;;;;;5088038;28;20189;-61
2022/12/05 03:38:38;;;;;;;24.93;18.40;;;8.50;99.90;;;;;;5069678;28;20185;-62
2022/12/05 03:41:25;;;;;;;25.33;17.27;;;8.50;99.90;;;;;;5088418;28;20237;-61
2022/12/05 03:44:08;;;;;;;24.87;17.10;;;8.60;99.90;;;;;;5088306;28;20629;-62
2022/12/05 03:46:38;;;;;;;23.33;16.93;;;8.60;99.90;;;;;;5088205;28;20266;-62
2022/12/05 03:49:10;;;;;;;24.20;17.53;;;8.70;99.90;;;;;;5070360;28;20249;-62
2022/12/05 03:51:51;;;;;;;23.17;16.60;;;8.60;99.90;;;;;;5070334;28;20210;-62
2022/12/05 03:54:25;;;;;;;23.20;16.97;;;8.60;99.90;;;;;;5070054;28;20185;-62
2022/12/05 03:56:58;;;;;;;22.53;16.27;;;8.50;99.90;;;;;;5088906;28;20178;-62
2022/12/05 03:59:31;;;;;;;23.17;16.57;;;8.50;99.90;;;;;;5068190;28;20210;-61
2022/12/05 04:02:00;;;;;;;23.00;16.50;;;8.50;99.90;;;;;;5086210;28;20285;-61
2022/12/05 04:04:35;;;;;;;21.17;16.27;;;8.50;99.90;;;;;;5085746;28;20298;-61
2022/12/05 04:07:04;;;;;;;20.77;15.60;;;9.60;99.90;;;;;;5068617;28;20246;-59
2022/12/05 04:09:36;;;;;;;21.10;15.37;;;9.10;99.90;;;;;;5086861;28;20167;-61
2022/12/05 04:12:09;;;;;;;21.83;15.50;;;8.60;99.90;;;;;;5069259;28;20178;-61
2022/12/05 04:14:42;;;;;;;20.30;14.40;;;8.50;99.90;;;;;;5087088;28;20198;-61
2022/12/05 04:17:33;;;;;;;20.67;15.63;;;8.90;99.90;;;;;;5087324;28;20174;-62
2022/12/05 04:22:48;;;;;;;24.47;16.90;;;8.40;99.90;;;;;;5089097;28;20255;-60
2022/12/05 04:25:34;;;;;;;21.50;15.83;;;8.20;99.90;;;;;;5086992;28;20719;-61
2022/12/05 04:28:24;;;;;;;23.00;16.20;;;9.30;99.90;;;;;;5088227;28;20227;-61
2022/12/05 04:31:06;;;;;;;20.73;15.07;;;8.30;99.90;;;;;;5089155;28;20277;-60
2022/12/05 04:34:05;;;;;;;21.67;15.10;;;8.20;99.90;;;;;;5069917;28;20189;-61
2022/12/05 04:36:55;;;;;;;20.70;14.40;;;8.20;99.90;;;;;;5070541;28;20174;-59
2022/12/05 04:39:38;;;;;;;22.23;15.97;;;8.20;99.90;;;;;;5086226;28;20174;-59
2022/12/05 04:42:08;;;;;;;22.33;15.00;;;8.20;99.90;;;;;;5085286;28;20225;-62
2022/12/05 04:44:39;;;;;;;21.67;15.27;;;9.30;99.90;;;;;;5087420;28;20196;-61
2022/12/05 04:47:07;;;;;;;21.00;15.13;;;8.20;99.90;;;;;;5087680;28;20166;-61
2022/12/05 04:49:34;;;;;;;20.67;15.23;;;9.40;99.90;;;;;;5086635;28;20178;-59
2022/12/05 04:52:06;;;;;;;19.77;13.83;;;8.40;99.90;;;;;;5086886;28;20234;-61
2022/12/05 04:54:40;;;;;;;22.23;16.20;;;8.50;99.90;;;;;;5069264;28;20174;-57
2022/12/05 04:57:22;;;;;;;19.27;14.17;;;8.40;99.90;;;;;;5086140;28;20174;-60
2022/12/05 04:59:48;;;;;;;20.93;15.17;;;8.40;99.90;;;;;;5086771;28;20175;-60
2022/12/05 05:02:18;;;;;;;24.87;17.03;;;8.40;99.90;;;;;;5086625;28;20217;-60
2022/12/05 05:04:49;;;;;;;20.17;14.20;;;9.10;99.90;;;;;;5085021;28;20208;-58
2022/12/05 05:07:16;;;;;;;17.33;13.43;;;8.20;99.90;;;;;;5086223;28;20192;-61
2022/12/05 05:09:43;;;;;;;18.23;13.83;;;8.20;99.90;;;;;;5084968;28;20174;-60
2022/12/05 05:12:10;;;;;;;20.93;14.93;;;8.50;99.90;;;;;;5087599;28;20632;-62
2022/12/05 05:14:36;;;;;;;21.07;15.93;;;8.40;99.90;;;;;;5085541;28;20194;-60
2022/12/05 05:17:02;;;;;;;20.87;15.07;;;8.40;99.90;;;;;;5068164;28;20205;-59
2022/12/05 05:19:28;;;;;;;21.27;15.27;;;8.40;99.90;;;;;;5087101;28;20171;-61
2022/12/05 05:21:54;;;;;;;20.80;15.03;;;8.50;99.90;;;;;;5085480;28;20229;-61
2022/12/05 05:24:22;;;;;;;22.70;14.80;;;8.50;99.90;;;;;;5066551;28;20217;-61
2022/12/05 05:26:48;;;;;;;21.90;14.27;;;9.40;99.90;;;;;;5086918;28;20173;-62
2022/12/05 05:29:14;;;;;;;18.73;13.57;;;8.40;99.90;;;;;;5085699;28;20179;-59
2022/12/05 05:31:40;;;;;;;22.17;14.93;;;8.30;99.90;;;;;;5085981;28;20194;-62
2022/12/05 05:34:07;;;;;;;20.73;14.47;;;8.30;99.90;;;;;;5070612;28;20189;-59
2022/12/05 05:36:33;;;;;;;20.67;14.20;;;8.50;99.90;;;;;;5088611;28;20206;-60
2022/12/05 05:39:01;;;;;;;20.50;14.03;;;8.50;99.90;;;;;;5070917;28;20174;-62
2022/12/05 05:41:32;;;;;;;19.57;14.17;;;8.40;99.90;;;;;;5067627;28;20229;-60
2022/12/05 05:43:58;;;;;;;22.33;15.47;;;8.50;99.90;;;;;;5067906;28;20178;-60
2022/12/05 05:46:27;;;;;;;21.47;15.33;;;8.40;99.90;;;;;;5068752;28;20181;-62
2022/12/05 05:48:53;;;;;;;20.40;15.00;;;8.50;99.90;;;;;;5086316;28;20234;-62
2022/12/05 05:51:20;;;;;;;21.60;15.07;;;8.70;99.90;;;;;;5086860;28;20209;-61
2022/12/05 05:53:46;;;;;;;20.20;14.47;;;8.60;99.90;;;;;;5067456;28;20189;-60
2022/12/05 05:56:15;;;;;;;20.17;14.27;;;8.60;99.90;;;;;;5068138;28;20282;-62
2022/12/05 05:58:41;;;;;;;20.10;14.97;;;10.00;99.90;;;;;;5085148;28;20178;-61
2022/12/05 06:01:15;;;;;;;18.77;14.20;;;8.80;99.90;;;;;;5083960;28;20244;-60
2022/12/05 06:03:42;;;;;;;20.20;14.33;;;8.20;99.90;;;;;;5085990;28;20190;-58
2022/12/05 06:06:11;;;;;;;23.27;14.87;;;8.20;99.90;;;;;;5084650;28;20242;-62
2022/12/05 06:08:39;;;;;;;19.83;14.20;;;9.50;99.90;;;;;;5067519;28;20261;-61
2022/12/05 06:11:06;;;;;;;20.77;14.63;;;8.10;99.90;;;;;;5067289;28;20275;-59
2022/12/05 06:13:32;;;;;;;20.47;14.63;;;8.80;99.90;;;;;;5085557;28;20189;-61
2022/12/05 06:15:58;;;;;;;20.67;14.33;;;8.40;99.90;;;;;;5066884;28;20170;-61
2022/12/05 06:18:23;;;;;;;21.10;15.53;;;6.90;99.90;;;;;;5080926;28;20186;-61
2022/12/05 06:20:56;;;;;;;20.80;15.13;;;8.10;99.90;;;;;;5063490;28;20205;-60
2022/12/05 06:23:23;;;;;;;22.20;14.80;;;8.00;99.90;;;;;;5082935;28;20159;-60
2022/12/05 06:25:50;;;;;;;24.07;15.93;;;8.00;99.90;;;;;;5068684;28;20202;-61
2022/12/05 06:28:17;;;;;;;21.37;14.83;;;8.10;99.90;;;;;;5065057;28;20265;-58
2022/12/05 06:30:43;;;;;;;24.57;16.13;;;7.90;99.90;;;;;;5082222;28;20189;-60
2022/12/05 06:33:09;;;;;;;20.17;14.30;;;9.10;99.90;;;;;;5082158;28;20178;-60
2022/12/05 06:35:35;;;;;;;19.10;14.47;;;8.30;99.90;;;;;;5078966;28;20197;-61
2022/12/05 06:38:00;;;;;;;23.43;16.33;;;7.70;99.90;;;;;;5073841;28;20182;-60
2022/12/05 06:40:26;;;;;;;21.13;15.77;;;7.90;99.90;;;;;;5067310;28;20202;-58
2022/12/05 06:42:51;;;;;;;27.20;18.13;;;8.50;99.90;;;;;;5076759;28;20199;-61
2022/12/05 06:45:17;;;;;;;21.80;15.37;;;7.60;99.90;;;;;;5079553;28;20838;-61
2022/12/05 06:47:43;;;;;;;19.43;15.10;;;8.40;99.90;;;;;;5082810;28;20183;-61
2022/12/05 06:50:09;;;;;;;19.23;14.57;;;7.00;99.90;;;;;;5063028;28;20202;-61
2022/12/05 06:52:35;;;;;;;18.50;12.43;;;7.70;99.90;;;;;;5071919;28;20187;-60
2022/12/05 06:55:00;;;;;;;14.50;11.30;;;7.90;99.90;;;;;;5049606;28;20206;-58
2022/12/05 06:57:29;;;;;;;17.57;12.03;;;6.10;99.90;;;;;;5064948;28;20189;-59
2022/12/05 07:02:50;;;;;;;13.87;11.47;;;5.90;99.90;;;;;;4978859;28;20218;-61
2022/12/05 07:05:16;;;;;;;16.17;10.23;;;5.90;99.90;;;;;;4970731;28;20183;-59
2022/12/05 07:07:41;;;;;;;15.00;11.07;;;5.70;99.90;;;;;;4969818;28;20193;-61
2022/12/05 07:10:07;;;;;;;15.03;10.53;;;6.50;99.90;;;;;;4975725;28;20221;-61
2022/12/05 07:12:33;;;;;;;13.73;10.37;;;5.50;99.90;;;;;;4984530;28;20204;-61
2022/12/05 07:14:59;;;;;;;14.63;10.10;;;5.40;99.90;;;;;;4958914;29;20182;-61
2022/12/05 07:17:25;;;;;;;12.43;9.10;;;5.40;99.90;;;;;;4980088;28;20237;-61
2022/12/05 07:19:51;;;;;;;14.23;10.03;;;5.80;99.90;;;;;;4971498;28;20698;-61
2022/12/05 07:22:19;;;;;;;13.33;9.63;;;5.80;99.90;;;;;;4972420;28;20213;-58
2022/12/05 07:24:45;;;;;;;12.07;8.50;;;6.10;99.90;;;;;;4972991;28;20229;-60
2022/12/05 07:27:12;;;;;;;14.43;9.87;;;7.40;99.90;;;;;;4970595;28;20193;-61
2022/12/05 07:29:37;;;;;;;11.07;8.53;;;7.10;99.90;;;;;;4965872;28;20182;-61
2022/12/05 07:32:03;;;;;;;10.93;8.47;;;5.80;99.90;;;;;;4983628;28;20257;-60
2022/12/05 07:34:29;;;;;;;12.97;9.10;;;5.10;99.90;;;;;;4980124;28;20674;-59
2022/12/05 07:36:55;;;;;;;11.83;8.67;;;5.00;99.90;;;;;;4978279;28;20682;-61
2022/12/05 07:39:20;;;;;;;11.77;9.37;;;5.80;99.90;;;;;;5017446;28;20186;-60
2022/12/05 07:41:46;;;;;;;12.97;9.40;;;5.00;99.90;;;;;;5061768;28;20206;-56
2022/12/05 07:44:12;;;;;;;11.97;8.40;;;4.90;99.90;;;;;;5079830;28;20186;-60
2022/12/05 07:46:38;;;;;;;12.37;8.63;;;5.00;99.90;;;;;;5068067;28;20229;-57
2022/12/05 07:49:04;;;;;;;11.50;9.00;;;5.10;99.90;;;;;;5085903;28;20185;-61
2022/12/05 07:53:58;;;;;;;10.27;7.80;;;5.10;99.90;;;;;;5064432;28;20221;-60
2022/12/05 07:56:24;;;;;;;11.03;8.23;;;5.10;99.90;;;;;;5049820;28;20171;-56
2022/12/05 07:58:50;;;;;;;12.30;8.67;;;5.00;99.90;;;;;;5049137;28;20241;-61
2022/12/05 08:01:22;;;;;;;10.70;8.00;;;4.90;99.90;;;;;;5048062;28;20207;-57
2022/12/05 08:03:48;;;;;;;10.93;8.53;;;4.70;99.90;;;;;;5065530;28;20179;-60
2022/12/05 08:06:16;;;;;;;9.50;7.73;;;4.70;99.90;;;;;;5066016;28;20175;-57
2022/12/05 08:08:43;;;;;;;10.10;7.87;;;4.80;99.90;;;;;;5066698;28;20178;-59
2022/12/05 08:11:11;;;;;;;10.87;8.40;;;4.90;99.90;;;;;;5065460;28;20191;-57
2022/12/05 08:13:36;;;;;;;10.50;8.00;;;5.10;99.90;;;;;;5048286;28;20175;-58
2022/12/05 08:16:04;;;;;;;11.73;8.30;;;5.20;99.90;;;;;;5064741;28;20185;-58
2022/12/05 08:18:30;;;;;;;9.07;7.27;;;5.20;99.90;;;;;;5066777;28;20259;-63
2022/12/05 08:21:04;;;;;;;10.13;8.00;;;5.20;99.90;;;;;;5048285;28;20199;-62
2022/12/05 08:23:31;;;;;;;9.93;7.53;;;5.10;99.90;;;;;;5065956;28;20178;-58
2022/12/05 08:26:14;;;;;;;11.83;7.97;;;5.40;99.90;;;;;;5065923;28;20175;-60
2022/12/05 08:28:41;;;;;;;11.13;8.10;;;5.30;99.90;;;;;;5065780;28;20199;-58
2022/12/05 08:31:09;;;;;;;10.50;8.53;;;5.50;99.90;;;;;;5065992;28;20214;-61
2022/12/05 08:33:35;;;;;;;11.17;8.23;;;5.10;99.90;;;;;;5065734;28;20227;-61
2022/12/05 08:36:03;;;;;;;11.33;8.03;;;5.10;99.90;;;;;;5065387;28;20178;-60
2022/12/05 08:38:30;;;;;;;11.67;8.57;;;5.30;99.90;;;;;;5047487;28;20217;-62
2022/12/05 08:40:55;;;;;;;11.07;8.57;;;5.40;99.90;;;;;;5047499;28;20195;-59
2022/12/05 08:43:21;;;;;;;10.87;8.50;;;5.60;99.90;;;;;;5047606;28;20237;-61
2022/12/05 08:45:51;;;;;;;10.63;8.43;;;5.60;99.90;;;;;;5064651;28;20221;-60
2022/12/05 08:48:17;;;;;;;12.53;9.20;;;5.60;99.90;;;;;;5064796;28;20167;-61
2022/12/05 08:50:43;;;;;;;13.10;8.73;;;5.80;99.90;;;;;;5047606;28;20248;-60
2022/12/05 08:53:08;;;;;;;13.83;10.07;;;6.10;99.90;;;;;;5047761;28;20190;-60
2022/12/05 08:55:35;;;;;;;12.67;9.43;;;5.90;99.90;;;;;;5065197;28;20230;-62
2022/12/05 08:58:01;;;;;;;12.03;9.10;;;5.70;99.90;;;;;;5046880;28;20183;-60
2022/12/05 09:00:26;;;;;;;12.67;10.10;;;5.70;99.90;;;;;;5065091;28;20302;-62
2022/12/05 09:02:52;;;;;;;14.07;10.83;;;6.00;99.90;;;;;;5046089;28;20199;-61
2022/12/05 09:05:18;;;;;;;10.87;8.83;;;6.40;99.90;;;;;;5063893;28;20262;-62
2022/12/05 09:07:44;;;;;;;12.77;9.20;;;7.40;99.90;;;;;;5046168;28;20178;-55
2022/12/05 09:10:09;;;;;;;11.20;8.30;;;6.60;99.90;;;;;;5064398;28;20178;-63
2022/12/05 09:12:36;;;;;;;11.73;9.43;;;6.50;99.90;;;;;;5063269;28;20172;-62
2022/12/05 09:15:03;;;;;;;11.97;9.17;;;6.60;99.90;;;;;;5062010;28;20545;-58
2022/12/05 09:17:28;;;;;;;10.83;8.23;;;6.10;99.90;;;;;;5064439;28;20186;-62
2022/12/05 09:19:54;;;;;;;10.67;8.10;;;5.70;99.90;;;;;;5065361;28;20258;-61
2022/12/05 09:22:21;;;;;;;12.20;9.10;;;5.90;99.90;;;;;;5046630;28;20225;-62
2022/12/05 09:24:47;;;;;;;11.00;8.23;;;5.80;99.90;;;;;;5064183;28;20238;-61
2022/12/05 09:27:13;;;;;;;11.00;8.53;;;5.60;99.90;;;;;;5064681;28;20167;-61
2022/12/05 09:29:38;;;;;;;12.03;8.33;;;5.40;99.90;;;;;;5065168;28;20217;-62
2022/12/05 09:32:05;;;;;;;9.67;7.57;;;5.30;99.90;;;;;;5064871;28;20219;-62
2022/12/05 09:34:30;;;;;;;10.13;7.97;;;5.70;99.90;;;;;;5063959;28;20602;-63
2022/12/05 09:36:56;;;;;;;11.30;8.50;;;5.40;99.90;;;;;;5064255;28;20171;-63
2022/12/05 09:39:23;;;;;;;10.43;8.27;;;5.30;99.90;;;;;;5063776;28;20178;-61
2022/12/05 09:42:23;;;;;;;11.27;8.40;;;5.30;99.90;;;;;;5063644;28;20226;-59
2022/12/05 09:45:44;;;;;;;14.93;8.50;;;5.30;99.90;;;;;;4983741;28;20950;-60
2022/12/05 09:48:18;;;;;;;11.87;9.10;;;5.30;99.90;;;;;;4925615;29;20745;-62
2022/12/05 09:50:56;;;;;;;13.83;8.83;;;5.10;99.90;;;;;;4926043;29;20435;-62
2022/12/05 09:53:27;;;;;;;10.60;8.20;;;4.80;99.90;;;;;;4941564;29;20736;-58
2022/12/05 09:56:19;;;;;;;13.73;8.50;;;4.60;99.90;;;;;;4941807;29;20191;-61
2022/12/05 09:58:46;;;;;;;11.03;8.13;;;4.60;99.90;;;;;;4925845;29;20266;-60
2022/12/05 10:01:49;;;;;;;11.70;8.93;;;5.00;99.90;;;;;;4926246;29;20263;-57
2022/12/05 10:04:42;;;;;;;12.20;9.00;;;4.90;99.90;;;;;;4925970;29;20319;-57
2022/12/05 10:07:32;;;;;;;12.27;9.23;;;3.80;99.90;;;;;;4927246;29;20210;-60
2022/12/05 10:10:19;;;;;;;11.93;9.63;;;4.90;99.90;;;;;;4926531;29;20196;-62
2022/12/05 10:12:59;;;;;;;12.07;9.63;;;4.90;99.90;;;;;;4926842;29;20179;-63
2022/12/05 10:15:39;;;;;;;11.50;9.03;;;4.80;99.90;;;;;;4925611;29;20187;-59
2022/12/05 10:18:45;;;;;;;11.80;9.23;;;4.70;99.90;;;;;;4926121;29;20261;-58
2022/12/05 10:21:32;;;;;;;11.57;8.70;;;4.80;99.90;;;;;;4887926;28;20220;-60
2022/12/05 10:24:03;;;;;;;13.63;10.33;;;5.20;99.90;;;;;;4991404;28;20207;-57
2022/12/05 10:26:35;;;;;;;13.07;9.77;;;5.00;99.90;;;;;;4985741;28;20204;-55
2022/12/05 10:29:22;;;;;;;11.43;8.97;;;4.90;99.90;;;;;;5002561;28;20172;-56
2022/12/05 10:31:50;;;;;;;15.17;9.53;;;4.70;99.90;;;;;;4986270;28;20208;-63
2022/12/05 10:34:20;;;;;;;11.53;8.33;;;4.70;99.90;;;;;;4986254;28;20177;-57
2022/12/05 10:37:18;;;;;;;12.20;9.30;;;4.60;99.90;;;;;;5001930;28;20177;-55
2022/12/05 10:39:45;;;;;;;11.47;8.77;;;4.60;99.90;;;;;;5004120;28;20189;-61
2022/12/05 10:42:27;;;;;;;11.00;8.77;;;4.60;99.90;;;;;;5006403;28;20201;-60
2022/12/05 10:44:57;;;;;;;10.97;8.43;;;4.70;99.90;;;;;;5005915;28;20208;-59
2022/12/05 10:47:23;;;;;;;11.57;8.73;;;4.70;99.90;;;;;;5006102;28;20625;-61
2022/12/05 10:49:50;;;;;;;11.73;8.70;;;5.20;99.90;;;;;;5006948;28;20229;-62
2022/12/05 10:52:16;;;;;;;12.80;8.37;;;4.80;99.90;;;;;;4989486;28;20741;-60
2022/12/05 10:54:50;;;;;;;11.30;8.60;;;4.90;99.90;;;;;;5006367;28;20173;-60
2022/12/05 10:57:24;;;;;;;11.00;8.03;;;6.70;99.90;;;;;;5004547;28;20183;-60
2022/12/05 10:59:50;;;;;;;10.10;8.43;;;5.10;99.90;;;;;;5067694;28;20166;-58
2022/12/05 11:02:29;;;;;;;12.10;10.03;;;5.20;99.90;;;;;;5067196;28;20284;-63
2022/12/05 11:04:55;;;;;;;11.53;9.07;;;5.20;99.90;;;;;;5067768;28;20167;-59
2022/12/05 11:07:43;;;;;;;10.17;8.33;;;5.30;99.90;;;;;;5048930;28;20706;-59
2022/12/05 11:10:36;;;;;;;10.50;8.47;;;5.20;99.90;;;;;;5050326;28;20171;-61
2022/12/05 11:13:22;;;;;;;10.87;8.80;;;5.00;99.90;;;;;;5067345;28;20206;-61
2022/12/05 11:15:48;;;;;;;10.60;8.63;;;4.90;99.90;;;;;;5067193;28;20686;-58
2022/12/05 11:18:27;;;;;;;11.70;9.80;;;5.10;99.90;;;;;;5067273;28;20175;-63
2022/12/05 11:20:52;;;;;;;13.00;9.67;;;5.00;99.90;;;;;;5067028;28;20199;-58
2022/12/05 11:23:27;;;;;;;11.23;8.77;;;6.50;99.90;;;;;;5049460;28;20198;-60
2022/12/05 11:25:54;;;;;;;11.97;8.67;;;5.20;99.90;;;;;;5065874;28;20177;-60
2022/12/05 11:28:20;;;;;;;12.57;8.90;;;5.40;99.90;;;;;;5082107;28;20171;-62
2022/12/05 11:30:54;;;;;;;10.43;8.10;;;5.10;99.90;;;;;;5049005;28;20240;-62
2022/12/05 11:33:22;;;;;;;10.00;8.17;;;5.10;99.90;;;;;;5048875;28;20186;-61
2022/12/05 11:35:50;;;;;;;10.63;8.67;;;5.30;99.90;;;;;;5066501;28;20182;-61
2022/12/05 11:38:20;;;;;;;9.23;7.67;;;5.20;99.90;;;;;;5066308;28;20183;-61
2022/12/05 11:40:57;;;;;;;11.37;8.70;;;5.10;99.90;;;;;;5066413;28;20249;-59
2022/12/05 11:43:23;;;;;;;9.67;7.40;;;5.20;99.90;;;;;;5066950;28;20273;-60
2022/12/05 11:46:12;;;;;;;8.53;7.13;;;5.20;99.90;;;;;;5066811;28;20167;-62
2022/12/05 11:49:12;;;;;;;8.73;7.33;;;5.10;99.90;;;;;;5067266;28;20296;-60
2022/12/05 11:51:47;;;;;;;8.97;7.20;;;5.00;99.90;;;;;;5066577;28;20198;-58
2022/12/05 11:54:57;;;;;;;10.17;7.10;;;5.00;99.90;;;;;;5066646;28;20187;-61
2022/12/05 11:57:56;;;;;;;9.27;6.70;;;5.30;99.90;;;;;;4985613;28;20204;-61
2022/12/05 12:00:47;;;;;;;9.23;6.73;;;5.50;99.90;;;;;;4984198;28;20205;-61
2022/12/05 12:03:16;;;;;;;9.73;6.80;;;5.40;99.90;;;;;;4912308;29;20219;-61
2022/12/05 12:05:41;;;;;;;9.40;7.13;;;5.30;99.90;;;;;;4927063;29;20192;-61
2022/12/05 12:08:22;;;;;;;10.47;7.57;;;5.20;99.90;;;;;;4910491;29;20183;-62
2022/12/05 12:11:14;;;;;;;10.83;7.93;;;5.20;99.90;;;;;;4911820;29;20309;-60
2022/12/05 12:14:18;;;;;;;10.97;7.43;;;5.30;99.90;;;;;;4927458;29;20286;-62
2022/12/05 12:16:59;;;;;;;8.90;7.07;;;5.30;99.90;;;;;;4926922;29;20203;-60
2022/12/05 12:19:31;;;;;;;9.00;7.17;;;5.00;99.90;;;;;;4912035;29;20180;-61
2022/12/05 12:22:36;;;;;;;9.23;6.60;;;5.00;99.90;;;;;;4926961;29;20211;-58
2022/12/05 12:25:26;;;;;;;8.30;6.73;;;5.00;99.90;;;;;;4926474;29;20191;-61
2022/12/05 12:28:08;;;;;;;9.03;6.97;;;5.10;99.90;;;;;;4926859;29;20227;-62
2022/12/05 12:30:56;;;;;;;8.40;6.67;;;5.20;99.90;;;;;;4911415;29;20207;-60
2022/12/05 12:33:38;;;;;;;9.17;6.83;;;5.20;99.90;;;;;;4938499;29;20198;-62
2022/12/05 12:36:31;;;;;;;7.53;6.17;;;5.30;99.90;;;;;;4950036;29;20207;-60
2022/12/05 12:39:26;;;;;;;12.37;7.33;;;5.10;99.90;;;;;;4957609;29;20194;-61
2022/12/05 12:42:02;;;;;;;8.73;6.00;;;5.10;99.90;;;;;;5064986;28;20195;-60
2022/12/05 12:44:30;;;;;;;7.73;6.23;;;4.90;99.90;;;;;;5064058;28;20170;-55
2022/12/05 12:47:00;;;;;;;9.60;6.37;;;4.90;99.90;;;;;;5064724;28;20167;-57
2022/12/05 12:49:51;;;;;;;8.50;6.20;;;4.80;99.90;;;;;;5064024;28;20171;-59
2022/12/05 12:52:21;;;;;;;8.53;5.47;;;4.90;99.90;;;;;;5064811;28;20206;-61
2022/12/05 12:54:56;;;;;;;7.73;6.13;;;4.80;99.90;;;;;;5064703;28;20178;-61
2022/12/05 12:57:48;;;;;;;9.00;6.17;;;5.00;99.90;;;;;;5046464;28;20205;-58
2022/12/05 13:00:42;;;;;;;8.03;6.20;;;5.20;99.90;;;;;;5065277;28;20198;-58
2022/12/05 13:03:19;;;;;;;8.83;6.90;;;5.10;99.90;;;;;;5064926;28;20210;-61
2022/12/05 13:05:47;;;;;;;8.63;6.40;;;5.20;99.90;;;;;;5047177;28;20246;-62
2022/12/05 13:08:29;;;;;;;8.37;6.50;;;5.50;99.90;;;;;;5048311;28;20181;-62
2022/12/05 13:10:57;;;;;;;8.53;6.37;;;5.80;99.90;;;;;;5064728;28;20182;-59
2022/12/05 13:13:32;;;;;;;8.57;6.10;;;6.00;99.90;;;;;;5065809;28;20163;-61
2022/12/05 13:16:00;;;;;;;7.17;5.77;;;6.30;99.90;;;;;;5065751;28;20170;-58
2022/12/05 13:18:27;;;;;;;8.50;7.13;;;6.20;99.90;;;;;;5066218;28;20178;-58